Hector International Airport Fargo US
ICAO: KFAR
IATA: FAR
Category: Medium
Scheduled Services: Yes

Elevation: 902 ft
TransAlt. 18000 ft.

Airport Communications:
FARGO APP/DEP:120.4
ATIS:124.5
GND/CLNC DEL:121.9
GRAND FORKS RDO:122.425
FARGO TWR:133.8
UNICOM:122.95

KFAR Zoom In..

If Map Doesn't Load, Click Here

Runways:

(A) RW 09 length 6302 ft width 100 ft
---- / hdg 86

(B) RW 13 length 3801 ft width 75 ft
---- / hdg 133

(C) RW 18 length 9001 ft width 150 ft
ILS 108.90 / hdg 176

(D) RW 27 length 6302 ft width 100 ft
---- / hdg 266

(E) RW 31 length 3801 ft width 75 ft
---- / hdg 313

(F) RW 36 length 9001 ft width 150 ft
ILS 110.30 / hdg 356

Location; KFAR
Day. 26 / Time. 09.53 Zulu
* Altimeter: 30.04
* Temperature: 06° c. 42.8°f.
* Wind from: 280° Speed 07 kn.
Dewpoint: 04° c.
Visibility: 10 Statute Miles.
Clouds: Broken 7000 ft.

KFAR 260953Z 28007KT 10SM BKN070 06/04 A3004 RMK AO2 SLP179 T00560044


Wind From 280°
Speed 07 kn.

 
 
jpsmedia.com for Web Design worldairports.se 2018   terms of use